sensor_id;sensor_type;location;lat;lon;timestamp;P1;durP1;ratioP1;P2;durP2;ratioP2
76548;SDS011;65391;52.068;4.542;2023-06-19T00:00:48;3.7;;;1.3;;
76548;SDS011;65391;52.068;4.542;2023-06-19T00:03:13;3.7;;;1.3;;
76548;SDS011;65391;52.068;4.542;2023-06-19T00:05:38;3.7;;;1.3;;
76548;SDS011;65391;52.068;4.542;2023-06-19T00:08:04;3.7;;;1.3;;
76548;SDS011;65391;52.068;4.542;2023-06-19T00:10:28;3;;;1.1;;
76548;SDS011;65391;52.068;4.542;2023-06-19T00:12:53;3;;;1.1;;
76548;SDS011;65391;52.068;4.542;2023-06-19T00:15:18;3;;;1.1;;
76548;SDS011;65391;52.068;4.542;2023-06-19T00:17:43;3;;;1.1;;
76548;SDS011;65391;52.068;4.542;2023-06-19T00:20:09;1.6;;;0.9;;
76548;SDS011;65391;52.068;4.542;2023-06-19T00:22:33;1.6;;;0.9;;
76548;SDS011;65391;52.068;4.542;2023-06-19T00:24:59;1.6;;;0.9;;
76548;SDS011;65391;52.068;4.542;2023-06-19T00:27:23;1.6;;;0.9;;
76548;SDS011;65391;52.068;4.542;2023-06-19T00:29:48;7.6;;;1.2;;
76548;SDS011;65391;52.068;4.542;2023-06-19T00:32:14;7.6;;;1.2;;
76548;SDS011;65391;52.068;4.542;2023-06-19T00:34:38;7.6;;;1.2;;
76548;SDS011;65391;52.068;4.542;2023-06-19T00:37:04;7.6;;;1.2;;
76548;SDS011;65391;52.068;4.542;2023-06-19T00:39:28;4.7;;;2.1;;
76548;SDS011;65391;52.068;4.542;2023-06-19T00:41:54;4.7;;;2.1;;
76548;SDS011;65391;52.068;4.542;2023-06-19T00:44:18;4.7;;;2.1;;
76548;SDS011;65391;52.068;4.542;2023-06-19T00:46:43;4.7;;;2.1;;
76548;SDS011;65391;52.068;4.542;2023-06-19T00:49:09;4.7;;;2.1;;
76548;SDS011;65391;52.068;4.542;2023-06-19T00:51:34;3.7;;;1.8;;
76548;SDS011;65391;52.068;4.542;2023-06-19T00:53:58;3.7;;;1.8;;
76548;SDS011;65391;52.068;4.542;2023-06-19T00:56:23;3.7;;;1.8;;
76548;SDS011;65391;52.068;4.542;2023-06-19T00:58:48;3.7;;;1.8;;
76548;SDS011;65391;52.068;4.542;2023-06-19T01:01:13;5.5;;;2.3;;
76548;SDS011;65391;52.068;4.542;2023-06-19T01:03:39;5.5;;;2.3;;
76548;SDS011;65391;52.068;4.542;2023-06-19T01:06:05;5.5;;;2.3;;
76548;SDS011;65391;52.068;4.542;2023-06-19T01:08:41;5.5;;;2.3;;
76548;SDS011;65391;52.068;4.542;2023-06-19T01:10:55;3.8;;;2.6;;
76548;SDS011;65391;52.068;4.542;2023-06-19T01:13:21;3.8;;;2.6;;
76548;SDS011;65391;52.068;4.542;2023-06-19T01:15:44;3.8;;;2.6;;
76548;SDS011;65391;52.068;4.542;2023-06-19T01:18:09;3.8;;;2.6;;
76548;SDS011;65391;52.068;4.542;2023-06-19T01:20:34;4.3;;;3.2;;
76548;SDS011;65391;52.068;4.542;2023-06-19T01:23:07;4.3;;;3.2;;
76548;SDS011;65391;52.068;4.542;2023-06-19T01:25:24;4.3;;;3.2;;
76548;SDS011;65391;52.068;4.542;2023-06-19T01:27:49;4.3;;;3.2;;
76548;SDS011;65391;52.068;4.542;2023-06-19T01:30:14;6.3;;;3.8;;
76548;SDS011;65391;52.068;4.542;2023-06-19T01:32:44;6.3;;;3.8;;
76548;SDS011;65391;52.068;4.542;2023-06-19T01:35:05;6.3;;;3.8;;
76548;SDS011;65391;52.068;4.542;2023-06-19T01:37:29;6.3;;;3.8;;
76548;SDS011;65391;52.068;4.542;2023-06-19T01:39:54;6.4;;;4.2;;
76548;SDS011;65391;52.068;4.542;2023-06-19T01:42:19;6.4;;;4.2;;
76548;SDS011;65391;52.068;4.542;2023-06-19T01:44:44;6.4;;;4.2;;
76548;SDS011;65391;52.068;4.542;2023-06-19T01:47:09;6.4;;;4.2;;
76548;SDS011;65391;52.068;4.542;2023-06-19T01:49:34;9.1;;;5.7;;
76548;SDS011;65391;52.068;4.542;2023-06-19T01:51:59;9.1;;;5.7;;
76548;SDS011;65391;52.068;4.542;2023-06-19T01:54:24;9.1;;;5.7;;
76548;SDS011;65391;52.068;4.542;2023-06-19T01:56:49;9.1;;;5.7;;
76548;SDS011;65391;52.068;4.542;2023-06-19T01:59:14;9.1;;;5.7;;
76548;SDS011;65391;52.068;4.542;2023-06-19T02:01:39;9.3;;;5.7;;
76548;SDS011;65391;52.068;4.542;2023-06-19T02:04:04;9.3;;;5.7;;
76548;SDS011;65391;52.068;4.542;2023-06-19T02:06:29;9.3;;;5.7;;
76548;SDS011;65391;52.068;4.542;2023-06-19T02:08:54;9.3;;;5.7;;
76548;SDS011;65391;52.068;4.542;2023-06-19T02:11:19;9.1;;;6.7;;
76548;SDS011;65391;52.068;4.542;2023-06-19T02:13:44;9.1;;;6.7;;
76548;SDS011;65391;52.068;4.542;2023-06-19T02:16:09;9.1;;;6.7;;
76548;SDS011;65391;52.068;4.542;2023-06-19T02:18:34;9.1;;;6.7;;
76548;SDS011;65391;52.068;4.542;2023-06-19T02:20:59;11.3;;;6.7;;
76548;SDS011;65391;52.068;4.542;2023-06-19T02:23:24;11.3;;;6.7;;
76548;SDS011;65391;52.068;4.542;2023-06-19T02:25:49;11.3;;;6.7;;
76548;SDS011;65391;52.068;4.542;2023-06-19T02:28:14;11.3;;;6.7;;
76548;SDS011;65391;52.068;4.542;2023-06-19T02:30:39;20.8;;;11.5;;
76548;SDS011;65391;52.068;4.542;2023-06-19T02:33:04;20.8;;;11.5;;
76548;SDS011;65391;52.068;4.542;2023-06-19T02:35:29;20.8;;;11.5;;
76548;SDS011;65391;52.068;4.542;2023-06-19T02:37:54;20.8;;;11.5;;
76548;SDS011;65391;52.068;4.542;2023-06-19T02:40:19;19.6;;;11.8;;
76548;SDS011;65391;52.068;4.542;2023-06-19T02:42:44;19.6;;;11.8;;
76548;SDS011;65391;52.068;4.542;2023-06-19T02:45:09;19.6;;;11.8;;
76548;SDS011;65391;52.068;4.542;2023-06-19T02:47:34;19.6;;;11.8;;
76548;SDS011;65391;52.068;4.542;2023-06-19T02:49:59;24.3;;;13.9;;
76548;SDS011;65391;52.068;4.542;2023-06-19T02:52:24;24.3;;;13.9;;
76548;SDS011;65391;52.068;4.542;2023-06-19T02:54:49;24.3;;;13.9;;
76548;SDS011;65391;52.068;4.542;2023-06-19T02:57:14;24.3;;;13.9;;
76548;SDS011;65391;52.068;4.542;2023-06-19T02:59:39;26.7;;;16.3;;
76548;SDS011;65391;52.068;4.542;2023-06-19T03:02:04;26.7;;;16.3;;
76548;SDS011;65391;52.068;4.542;2023-06-19T03:04:29;26.7;;;16.3;;
76548;SDS011;65391;52.068;4.542;2023-06-19T03:06:54;26.7;;;16.3;;
76548;SDS011;65391;52.068;4.542;2023-06-19T03:09:19;26.7;;;16.3;;
76548;SDS011;65391;52.068;4.542;2023-06-19T03:11:44;19.5;;;10.8;;
76548;SDS011;65391;52.068;4.542;2023-06-19T03:14:09;19.5;;;10.8;;
76548;SDS011;65391;52.068;4.542;2023-06-19T03:16:34;19.5;;;10.8;;
76548;SDS011;65391;52.068;4.542;2023-06-19T03:18:59;19.5;;;10.8;;
76548;SDS011;65391;52.068;4.542;2023-06-19T03:21:24;16.9;;;9.6;;
76548;SDS011;65391;52.068;4.542;2023-06-19T03:23:49;16.9;;;9.6;;
76548;SDS011;65391;52.068;4.542;2023-06-19T03:26:14;16.9;;;9.6;;
76548;SDS011;65391;52.068;4.542;2023-06-19T03:28:39;16.9;;;9.6;;
76548;SDS011;65391;52.068;4.542;2023-06-19T03:31:04;23.4;;;14.3;;
76548;SDS011;65391;52.068;4.542;2023-06-19T03:33:29;23.4;;;14.3;;
76548;SDS011;65391;52.068;4.542;2023-06-19T03:35:54;23.4;;;14.3;;
76548;SDS011;65391;52.068;4.542;2023-06-19T03:38:19;23.4;;;14.3;;
76548;SDS011;65391;52.068;4.542;2023-06-19T03:40:44;26.2;;;16.9;;
76548;SDS011;65391;52.068;4.542;2023-06-19T03:43:09;26.2;;;16.9;;
76548;SDS011;65391;52.068;4.542;2023-06-19T03:45:34;26.2;;;16.9;;
76548;SDS011;65391;52.068;4.542;2023-06-19T03:47:59;26.2;;;16.9;;
76548;SDS011;65391;52.068;4.542;2023-06-19T03:50:24;24.7;;;15.3;;
76548;SDS011;65391;52.068;4.542;2023-06-19T03:52:49;24.7;;;15.3;;
76548;SDS011;65391;52.068;4.542;2023-06-19T03:55:14;24.7;;;15.3;;
76548;SDS011;65391;52.068;4.542;2023-06-19T03:57:39;24.7;;;15.3;;
76548;SDS011;65391;52.068;4.542;2023-06-19T04:00:05;17.8;;;9;;
76548;SDS011;65391;52.068;4.542;2023-06-19T04:02:29;17.8;;;9;;
76548;SDS011;65391;52.068;4.542;2023-06-19T04:04:54;17.8;;;9;;
76548;SDS011;65391;52.068;4.542;2023-06-19T04:07:19;17.8;;;9;;
76548;SDS011;65391;52.068;4.542;2023-06-19T04:09:44;12.5;;;6.3;;
76548;SDS011;65391;52.068;4.542;2023-06-19T04:12:09;12.5;;;6.3;;
76548;SDS011;65391;52.068;4.542;2023-06-19T04:14:34;12.5;;;6.3;;
76548;SDS011;65391;52.068;4.542;2023-06-19T04:16:59;12.5;;;6.3;;
76548;SDS011;65391;52.068;4.542;2023-06-19T04:19:24;12.5;;;6.3;;
76548;SDS011;65391;52.068;4.542;2023-06-19T04:21:49;11.2;;;6.2;;
76548;SDS011;65391;52.068;4.542;2023-06-19T04:24:14;11.2;;;6.2;;
76548;SDS011;65391;52.068;4.542;2023-06-19T04:26:39;11.2;;;6.2;;
76548;SDS011;65391;52.068;4.542;2023-06-19T04:29:04;11.2;;;6.2;;
76548;SDS011;65391;52.068;4.542;2023-06-19T04:31:29;9.8;;;5.6;;
76548;SDS011;65391;52.068;4.542;2023-06-19T04:33:54;9.8;;;5.6;;
76548;SDS011;65391;52.068;4.542;2023-06-19T04:36:19;9.8;;;5.6;;
76548;SDS011;65391;52.068;4.542;2023-06-19T04:38:44;9.8;;;5.6;;
76548;SDS011;65391;52.068;4.542;2023-06-19T04:41:09;14.1;;;7.2;;
76548;SDS011;65391;52.068;4.542;2023-06-19T04:43:34;14.1;;;7.2;;
76548;SDS011;65391;52.068;4.542;2023-06-19T04:45:59;14.1;;;7.2;;
76548;SDS011;65391;52.068;4.542;2023-06-19T04:48:24;14.1;;;7.2;;
76548;SDS011;65391;52.068;4.542;2023-06-19T04:50:49;14.9;;;7.5;;
76548;SDS011;65391;52.068;4.542;2023-06-19T04:53:14;14.9;;;7.5;;
76548;SDS011;65391;52.068;4.542;2023-06-19T04:55:39;14.9;;;7.5;;
76548;SDS011;65391;52.068;4.542;2023-06-19T04:58:04;14.9;;;7.5;;
76548;SDS011;65391;52.068;4.542;2023-06-19T05:00:29;16.2;;;8.8;;
76548;SDS011;65391;52.068;4.542;2023-06-19T05:02:54;16.2;;;8.8;;
76548;SDS011;65391;52.068;4.542;2023-06-19T05:05:19;16.2;;;8.8;;
76548;SDS011;65391;52.068;4.542;2023-06-19T05:07:44;16.2;;;8.8;;
76548;SDS011;65391;52.068;4.542;2023-06-19T05:10:09;16.2;;;9.2;;
76548;SDS011;65391;52.068;4.542;2023-06-19T05:12:34;16.2;;;9.2;;
76548;SDS011;65391;52.068;4.542;2023-06-19T05:14:59;16.2;;;9.2;;
76548;SDS011;65391;52.068;4.542;2023-06-19T05:17:24;16.2;;;9.2;;
76548;SDS011;65391;52.068;4.542;2023-06-19T05:19:49;18.7;;;9.1;;
76548;SDS011;65391;52.068;4.542;2023-06-19T05:22:14;18.7;;;9.1;;
76548;SDS011;65391;52.068;4.542;2023-06-19T05:24:39;18.7;;;9.1;;
76548;SDS011;65391;52.068;4.542;2023-06-19T05:27:05;18.7;;;9.1;;
76548;SDS011;65391;52.068;4.542;2023-06-19T05:29:29;18.7;;;9.1;;
76548;SDS011;65391;52.068;4.542;2023-06-19T05:31:54;17;;;9.8;;
76548;SDS011;65391;52.068;4.542;2023-06-19T05:34:19;17;;;9.8;;
76548;SDS011;65391;52.068;4.542;2023-06-19T05:36:44;17;;;9.8;;
76548;SDS011;65391;52.068;4.542;2023-06-19T05:39:09;17;;;9.8;;
76548;SDS011;65391;52.068;4.542;2023-06-19T05:41:34;19.9;;;11;;
76548;SDS011;65391;52.068;4.542;2023-06-19T05:43:59;19.9;;;11;;
76548;SDS011;65391;52.068;4.542;2023-06-19T05:46:24;19.9;;;11;;
76548;SDS011;65391;52.068;4.542;2023-06-19T05:48:49;19.9;;;11;;
76548;SDS011;65391;52.068;4.542;2023-06-19T05:51:14;20;;;10.3;;
76548;SDS011;65391;52.068;4.542;2023-06-19T05:53:39;20;;;10.3;;
76548;SDS011;65391;52.068;4.542;2023-06-19T05:56:04;20;;;10.3;;
76548;SDS011;65391;52.068;4.542;2023-06-19T05:58:29;20;;;10.3;;
76548;SDS011;65391;52.068;4.542;2023-06-19T06:00:54;17.8;;;10.4;;
76548;SDS011;65391;52.068;4.542;2023-06-19T06:03:19;17.8;;;10.4;;
76548;SDS011;65391;52.068;4.542;2023-06-19T06:05:44;17.8;;;10.4;;
76548;SDS011;65391;52.068;4.542;2023-06-19T06:08:09;17.8;;;10.4;;
76548;SDS011;65391;52.068;4.542;2023-06-19T06:10:34;22.2;;;12.4;;
76548;SDS011;65391;52.068;4.542;2023-06-19T06:12:59;22.2;;;12.4;;
76548;SDS011;65391;52.068;4.542;2023-06-19T06:15:24;22.2;;;12.4;;
76548;SDS011;65391;52.068;4.542;2023-06-19T06:17:49;22.2;;;12.4;;
76548;SDS011;65391;52.068;4.542;2023-06-19T06:20:14;23.4;;;13.3;;
76548;SDS011;65391;52.068;4.542;2023-06-19T06:22:39;23.4;;;13.3;;
76548;SDS011;65391;52.068;4.542;2023-06-19T06:25:05;23.4;;;13.3;;
76548;SDS011;65391;52.068;4.542;2023-06-19T06:27:29;23.4;;;13.3;;
76548;SDS011;65391;52.068;4.542;2023-06-19T06:29:54;19.5;;;11.8;;
76548;SDS011;65391;52.068;4.542;2023-06-19T06:32:19;19.5;;;11.8;;
76548;SDS011;65391;52.068;4.542;2023-06-19T06:34:44;19.5;;;11.8;;
76548;SDS011;65391;52.068;4.542;2023-06-19T06:37:09;19.5;;;11.8;;
76548;SDS011;65391;52.068;4.542;2023-06-19T06:39:34;19.5;;;11.8;;
76548;SDS011;65391;52.068;4.542;2023-06-19T06:41:59;19;;;11.5;;
76548;SDS011;65391;52.068;4.542;2023-06-19T06:44:25;19;;;11.5;;
76548;SDS011;65391;52.068;4.542;2023-06-19T06:46:49;19;;;11.5;;
76548;SDS011;65391;52.068;4.542;2023-06-19T06:49:14;19;;;11.5;;
76548;SDS011;65391;52.068;4.542;2023-06-19T06:51:39;20.9;;;10.5;;
76548;SDS011;65391;52.068;4.542;2023-06-19T06:54:04;20.9;;;10.5;;
76548;SDS011;65391;52.068;4.542;2023-06-19T06:56:29;20.9;;;10.5;;
76548;SDS011;65391;52.068;4.542;2023-06-19T06:58:54;20.9;;;10.5;;
76548;SDS011;65391;52.068;4.542;2023-06-19T07:01:19;21.1;;;11.1;;
76548;SDS011;65391;52.068;4.542;2023-06-19T07:03:45;21.1;;;11.1;;
76548;SDS011;65391;52.068;4.542;2023-06-19T07:06:10;21.1;;;11.1;;
76548;SDS011;65391;52.068;4.542;2023-06-19T07:08:34;21.1;;;11.1;;
76548;SDS011;65391;52.068;4.542;2023-06-19T07:10:59;15.8;;;8.2;;
76548;SDS011;65391;52.068;4.542;2023-06-19T07:13:25;15.8;;;8.2;;
76548;SDS011;65391;52.068;4.542;2023-06-19T07:15:49;15.8;;;8.2;;
76548;SDS011;65391;52.068;4.542;2023-06-19T07:18:14;15.8;;;8.2;;
76548;SDS011;65391;52.068;4.542;2023-06-19T07:20:39;17;;;10.5;;
76548;SDS011;65391;52.068;4.542;2023-06-19T07:23:04;17;;;10.5;;
76548;SDS011;65391;52.068;4.542;2023-06-19T07:25:29;17;;;10.5;;
76548;SDS011;65391;52.068;4.542;2023-06-19T07:27:54;17;;;10.5;;
76548;SDS011;65391;52.068;4.542;2023-06-19T07:30:19;16.1;;;9.9;;
76548;SDS011;65391;52.068;4.542;2023-06-19T07:32:44;16.1;;;9.9;;
76548;SDS011;65391;52.068;4.542;2023-06-19T07:35:09;16.1;;;9.9;;
76548;SDS011;65391;52.068;4.542;2023-06-19T07:37:34;16.1;;;9.9;;
76548;SDS011;65391;52.068;4.542;2023-06-19T07:39:59;15.5;;;9.4;;
76548;SDS011;65391;52.068;4.542;2023-06-19T07:42:25;15.5;;;9.4;;
76548;SDS011;65391;52.068;4.542;2023-06-19T07:44:49;15.5;;;9.4;;
76548;SDS011;65391;52.068;4.542;2023-06-19T07:47:16;15.5;;;9.4;;
76548;SDS011;65391;52.068;4.542;2023-06-19T07:49:39;15.5;;;9.4;;
76548;SDS011;65391;52.068;4.542;2023-06-19T07:52:05;14.9;;;9.7;;
76548;SDS011;65391;52.068;4.542;2023-06-19T07:54:29;14.9;;;9.7;;
76548;SDS011;65391;52.068;4.542;2023-06-19T07:56:54;14.9;;;9.7;;
76548;SDS011;65391;52.068;4.542;2023-06-19T07:59:20;14.9;;;9.7;;
76548;SDS011;65391;52.068;4.542;2023-06-19T08:01:44;16.4;;;10.3;;
76548;SDS011;65391;52.068;4.542;2023-06-19T08:04:09;16.4;;;10.3;;
76548;SDS011;65391;52.068;4.542;2023-06-19T08:06:34;16.4;;;10.3;;
76548;SDS011;65391;52.068;4.542;2023-06-19T08:08:59;16.4;;;10.3;;
76548;SDS011;65391;52.068;4.542;2023-06-19T08:11:24;20.8;;;11.7;;
76548;SDS011;65391;52.068;4.542;2023-06-19T08:13:49;20.8;;;11.7;;
76548;SDS011;65391;52.068;4.542;2023-06-19T08:16:15;20.8;;;11.7;;
76548;SDS011;65391;52.068;4.542;2023-06-19T08:18:39;20.8;;;11.7;;
76548;SDS011;65391;52.068;4.542;2023-06-19T08:21:04;20.2;;;10.7;;
76548;SDS011;65391;52.068;4.542;2023-06-19T08:23:29;20.2;;;10.7;;
76548;SDS011;65391;52.068;4.542;2023-06-19T08:25:55;20.2;;;10.7;;
76548;SDS011;65391;52.068;4.542;2023-06-19T08:28:19;20.2;;;10.7;;
76548;SDS011;65391;52.068;4.542;2023-06-19T08:30:45;17.3;;;11;;
76548;SDS011;65391;52.068;4.542;2023-06-19T08:33:09;17.3;;;11;;
76548;SDS011;65391;52.068;4.542;2023-06-19T08:35:35;17.3;;;11;;
76548;SDS011;65391;52.068;4.542;2023-06-19T08:37:59;17.3;;;11;;
76548;SDS011;65391;52.068;4.542;2023-06-19T08:40:25;18.1;;;9.1;;
76548;SDS011;65391;52.068;4.542;2023-06-19T08:42:50;18.1;;;9.1;;
76548;SDS011;65391;52.068;4.542;2023-06-19T08:45:15;18.1;;;9.1;;
76548;SDS011;65391;52.068;4.542;2023-06-19T08:47:40;18.1;;;9.1;;
76548;SDS011;65391;52.068;4.542;2023-06-19T08:50:06;13;;;7.8;;
76548;SDS011;65391;52.068;4.542;2023-06-19T08:52:30;13;;;7.8;;
76548;SDS011;65391;52.068;4.542;2023-06-19T08:54:55;13;;;7.8;;
76548;SDS011;65391;52.068;4.542;2023-06-19T08:57:20;13;;;7.8;;
76548;SDS011;65391;52.068;4.542;2023-06-19T08:59:48;13;;;7.8;;
76548;SDS011;65391;52.068;4.542;2023-06-19T09:02:10;14;;;8.7;;
76548;SDS011;65391;52.068;4.542;2023-06-19T09:04:35;14;;;8.7;;
76548;SDS011;65391;52.068;4.542;2023-06-19T09:07:02;14;;;8.7;;
76548;SDS011;65391;52.068;4.542;2023-06-19T09:09:26;14;;;8.7;;
76548;SDS011;65391;52.068;4.542;2023-06-19T09:11:58;11.4;;;8.1;;
76548;SDS011;65391;52.068;4.542;2023-06-19T09:14:15;11.4;;;8.1;;
76548;SDS011;65391;52.068;4.542;2023-06-19T09:16:40;11.4;;;8.1;;
76548;SDS011;65391;52.068;4.542;2023-06-19T09:19:05;11.4;;;8.1;;
76548;SDS011;65391;52.068;4.542;2023-06-19T09:21:30;8.6;;;6.7;;
76548;SDS011;65391;52.068;4.542;2023-06-19T09:23:55;8.6;;;6.7;;
76548;SDS011;65391;52.068;4.542;2023-06-19T09:26:20;8.6;;;6.7;;
76548;SDS011;65391;52.068;4.542;2023-06-19T09:28:45;8.6;;;6.7;;
76548;SDS011;65391;52.068;4.542;2023-06-19T09:31:10;11;;;7.3;;
76548;SDS011;65391;52.068;4.542;2023-06-19T09:33:35;11;;;7.3;;
76548;SDS011;65391;52.068;4.542;2023-06-19T09:36:01;11;;;7.3;;
76548;SDS011;65391;52.068;4.542;2023-06-19T09:38:26;11;;;7.3;;
76548;SDS011;65391;52.068;4.542;2023-06-19T09:40:50;10.9;;;7.2;;
76548;SDS011;65391;52.068;4.542;2023-06-19T09:43:16;10.9;;;7.2;;
76548;SDS011;65391;52.068;4.542;2023-06-19T09:45:40;10.9;;;7.2;;
76548;SDS011;65391;52.068;4.542;2023-06-19T09:48:05;10.9;;;7.2;;
76548;SDS011;65391;52.068;4.542;2023-06-19T09:50:30;12.5;;;7;;
76548;SDS011;65391;52.068;4.542;2023-06-19T09:52:55;12.5;;;7;;
76548;SDS011;65391;52.068;4.542;2023-06-19T09:55:20;12.5;;;7;;
76548;SDS011;65391;52.068;4.542;2023-06-19T09:57:45;12.5;;;7;;
76548;SDS011;65391;52.068;4.542;2023-06-19T10:00:10;9.1;;;5.9;;
76548;SDS011;65391;52.068;4.542;2023-06-19T10:02:35;9.1;;;5.9;;
76548;SDS011;65391;52.068;4.542;2023-06-19T10:05:00;9.1;;;5.9;;
76548;SDS011;65391;52.068;4.542;2023-06-19T10:07:26;9.1;;;5.9;;
76548;SDS011;65391;52.068;4.542;2023-06-19T10:09:58;9.1;;;5.9;;
76548;SDS011;65391;52.068;4.542;2023-06-19T10:12:15;9.6;;;6;;
76548;SDS011;65391;52.068;4.542;2023-06-19T10:14:46;9.6;;;6;;
76548;SDS011;65391;52.068;4.542;2023-06-19T10:17:08;9.6;;;6;;
76548;SDS011;65391;52.068;4.542;2023-06-19T10:19:30;9.6;;;6;;
76548;SDS011;65391;52.068;4.542;2023-06-19T10:21:55;6.5;;;5.4;;
76548;SDS011;65391;52.068;4.542;2023-06-19T10:24:20;6.5;;;5.4;;
76548;SDS011;65391;52.068;4.542;2023-06-19T10:26:55;6.5;;;5.4;;
76548;SDS011;65391;52.068;4.542;2023-06-19T10:29:14;6.5;;;5.4;;
76548;SDS011;65391;52.068;4.542;2023-06-19T10:31:35;8.9;;;5.4;;
76548;SDS011;65391;52.068;4.542;2023-06-19T10:34:00;8.9;;;5.4;;
76548;SDS011;65391;52.068;4.542;2023-06-19T10:36:25;8.9;;;5.4;;
76548;SDS011;65391;52.068;4.542;2023-06-19T10:38:50;8.9;;;5.4;;
76548;SDS011;65391;52.068;4.542;2023-06-19T10:41:15;8.1;;;5.5;;
76548;SDS011;65391;52.068;4.542;2023-06-19T10:43:40;8.1;;;5.5;;
76548;SDS011;65391;52.068;4.542;2023-06-19T10:46:05;8.1;;;5.5;;
76548;SDS011;65391;52.068;4.542;2023-06-19T10:48:30;8.1;;;5.5;;
76548;SDS011;65391;52.068;4.542;2023-06-19T10:50:55;7.2;;;4.9;;
76548;SDS011;65391;52.068;4.542;2023-06-19T10:53:24;7.2;;;4.9;;
76548;SDS011;65391;52.068;4.542;2023-06-19T10:55:45;7.2;;;4.9;;
76548;SDS011;65391;52.068;4.542;2023-06-19T10:58:10;7.2;;;4.9;;
76548;SDS011;65391;52.068;4.542;2023-06-19T11:00:35;8.4;;;5.5;;
76548;SDS011;65391;52.068;4.542;2023-06-19T11:03:00;8.4;;;5.5;;
76548;SDS011;65391;52.068;4.542;2023-06-19T11:05:26;8.4;;;5.5;;
76548;SDS011;65391;52.068;4.542;2023-06-19T11:07:51;8.4;;;5.5;;
76548;SDS011;65391;52.068;4.542;2023-06-19T11:10:19;8.4;;;5.5;;
76548;SDS011;65391;52.068;4.542;2023-06-19T11:12:40;7.6;;;5.2;;
76548;SDS011;65391;52.068;4.542;2023-06-19T11:15:06;7.6;;;5.2;;
76548;SDS011;65391;52.068;4.542;2023-06-19T11:17:30;7.6;;;5.2;;
76548;SDS011;65391;52.068;4.542;2023-06-19T11:19:56;7.6;;;5.2;;
76548;SDS011;65391;52.068;4.542;2023-06-19T11:22:20;9.5;;;6.7;;
76548;SDS011;65391;52.068;4.542;2023-06-19T11:24:45;9.5;;;6.7;;
76548;SDS011;65391;52.068;4.542;2023-06-19T11:27:16;9.5;;;6.7;;
76548;SDS011;65391;52.068;4.542;2023-06-19T11:29:35;9.5;;;6.7;;
76548;SDS011;65391;52.068;4.542;2023-06-19T11:32:09;10.3;;;5.1;;
76548;SDS011;65391;52.068;4.542;2023-06-19T11:34:31;10.3;;;5.1;;
76548;SDS011;65391;52.068;4.542;2023-06-19T11:36:50;10.3;;;5.1;;
76548;SDS011;65391;52.068;4.542;2023-06-19T11:39:15;10.3;;;5.1;;
76548;SDS011;65391;52.068;4.542;2023-06-19T11:41:40;8.4;;;4.9;;
76548;SDS011;65391;52.068;4.542;2023-06-19T11:44:06;8.4;;;4.9;;
76548;SDS011;65391;52.068;4.542;2023-06-19T11:46:30;8.4;;;4.9;;
76548;SDS011;65391;52.068;4.542;2023-06-19T11:48:55;8.4;;;4.9;;
76548;SDS011;65391;52.068;4.542;2023-06-19T11:51:20;9.8;;;6.2;;
76548;SDS011;65391;52.068;4.542;2023-06-19T11:53:45;9.8;;;6.2;;
76548;SDS011;65391;52.068;4.542;2023-06-19T11:56:10;9.8;;;6.2;;
76548;SDS011;65391;52.068;4.542;2023-06-19T11:58:35;9.8;;;6.2;;
76548;SDS011;65391;52.068;4.542;2023-06-19T12:01:00;8.1;;;6.2;;
76548;SDS011;65391;52.068;4.542;2023-06-19T12:03:25;8.1;;;6.2;;
76548;SDS011;65391;52.068;4.542;2023-06-19T12:05:50;8.1;;;6.2;;
76548;SDS011;65391;52.068;4.542;2023-06-19T12:08:15;8.1;;;6.2;;
76548;SDS011;65391;52.068;4.542;2023-06-19T12:10:40;11.6;;;7.8;;
76548;SDS011;65391;52.068;4.542;2023-06-19T12:13:05;11.6;;;7.8;;
76548;SDS011;65391;52.068;4.542;2023-06-19T12:15:30;11.6;;;7.8;;
76548;SDS011;65391;52.068;4.542;2023-06-19T12:17:55;11.6;;;7.8;;
76548;SDS011;65391;52.068;4.542;2023-06-19T12:20:20;11.6;;;7.8;;
76548;SDS011;65391;52.068;4.542;2023-06-19T12:22:45;10.6;;;7.7;;
76548;SDS011;65391;52.068;4.542;2023-06-19T12:25:10;10.6;;;7.7;;
76548;SDS011;65391;52.068;4.542;2023-06-19T12:27:35;10.6;;;7.7;;
76548;SDS011;65391;52.068;4.542;2023-06-19T12:30:00;10.6;;;7.7;;
76548;SDS011;65391;52.068;4.542;2023-06-19T12:32:25;13.4;;;8.4;;
76548;SDS011;65391;52.068;4.542;2023-06-19T12:34:50;13.4;;;8.4;;
76548;SDS011;65391;52.068;4.542;2023-06-19T12:37:15;13.4;;;8.4;;
76548;SDS011;65391;52.068;4.542;2023-06-19T12:39:40;13.4;;;8.4;;
76548;SDS011;65391;52.068;4.542;2023-06-19T12:42:06;8.5;;;6.6;;
76548;SDS011;65391;52.068;4.542;2023-06-19T12:44:30;8.5;;;6.6;;
76548;SDS011;65391;52.068;4.542;2023-06-19T12:46:55;8.5;;;6.6;;
76548;SDS011;65391;52.068;4.542;2023-06-19T12:49:20;8.5;;;6.6;;
76548;SDS011;65391;52.068;4.542;2023-06-19T12:51:45;11.8;;;7.1;;
76548;SDS011;65391;52.068;4.542;2023-06-19T12:54:10;11.8;;;7.1;;
76548;SDS011;65391;52.068;4.542;2023-06-19T12:56:35;11.8;;;7.1;;
76548;SDS011;65391;52.068;4.542;2023-06-19T12:59:00;11.8;;;7.1;;
76548;SDS011;65391;52.068;4.542;2023-06-19T13:01:25;12.6;;;8;;
76548;SDS011;65391;52.068;4.542;2023-06-19T13:03:50;12.6;;;8;;
76548;SDS011;65391;52.068;4.542;2023-06-19T13:06:15;12.6;;;8;;
76548;SDS011;65391;52.068;4.542;2023-06-19T13:08:40;12.6;;;8;;
76548;SDS011;65391;52.068;4.542;2023-06-19T13:11:05;10.7;;;7.3;;
76548;SDS011;65391;52.068;4.542;2023-06-19T13:13:30;10.7;;;7.3;;
76548;SDS011;65391;52.068;4.542;2023-06-19T13:15:55;10.7;;;7.3;;
76548;SDS011;65391;52.068;4.542;2023-06-19T13:18:20;10.7;;;7.3;;
76548;SDS011;65391;52.068;4.542;2023-06-19T13:20:45;8.6;;;6.8;;
76548;SDS011;65391;52.068;4.542;2023-06-19T13:23:10;8.6;;;6.8;;
76548;SDS011;65391;52.068;4.542;2023-06-19T13:25:35;8.6;;;6.8;;
76548;SDS011;65391;52.068;4.542;2023-06-19T13:28:00;8.6;;;6.8;;
76548;SDS011;65391;52.068;4.542;2023-06-19T13:30:25;8.6;;;6.8;;
76548;SDS011;65391;52.068;4.542;2023-06-19T13:32:50;9.2;;;6.3;;
76548;SDS011;65391;52.068;4.542;2023-06-19T13:35:15;9.2;;;6.3;;
76548;SDS011;65391;52.068;4.542;2023-06-19T13:37:40;9.2;;;6.3;;
76548;SDS011;65391;52.068;4.542;2023-06-19T13:40:06;9.2;;;6.3;;
76548;SDS011;65391;52.068;4.542;2023-06-19T13:42:31;7.3;;;5.7;;
76548;SDS011;65391;52.068;4.542;2023-06-19T13:44:55;7.3;;;5.7;;
76548;SDS011;65391;52.068;4.542;2023-06-19T13:47:20;7.3;;;5.7;;
76548;SDS011;65391;52.068;4.542;2023-06-19T13:49:45;7.3;;;5.7;;
76548;SDS011;65391;52.068;4.542;2023-06-19T13:52:10;6.8;;;4.6;;
76548;SDS011;65391;52.068;4.542;2023-06-19T13:54:35;6.8;;;4.6;;
76548;SDS011;65391;52.068;4.542;2023-06-19T13:57:00;6.8;;;4.6;;
76548;SDS011;65391;52.068;4.542;2023-06-19T13:59:25;6.8;;;4.6;;
76548;SDS011;65391;52.068;4.542;2023-06-19T14:01:50;9.3;;;5.4;;
76548;SDS011;65391;52.068;4.542;2023-06-19T14:04:15;9.3;;;5.4;;
76548;SDS011;65391;52.068;4.542;2023-06-19T14:06:40;9.3;;;5.4;;
76548;SDS011;65391;52.068;4.542;2023-06-19T14:09:05;9.3;;;5.4;;
76548;SDS011;65391;52.068;4.542;2023-06-19T14:11:30;7.6;;;4.7;;
76548;SDS011;65391;52.068;4.542;2023-06-19T14:13:55;7.6;;;4.7;;
76548;SDS011;65391;52.068;4.542;2023-06-19T14:16:20;7.6;;;4.7;;
76548;SDS011;65391;52.068;4.542;2023-06-19T14:18:45;7.6;;;4.7;;
76548;SDS011;65391;52.068;4.542;2023-06-19T14:21:10;6.3;;;4.5;;
76548;SDS011;65391;52.068;4.542;2023-06-19T14:23:35;6.3;;;4.5;;
76548;SDS011;65391;52.068;4.542;2023-06-19T14:26:00;6.3;;;4.5;;
76548;SDS011;65391;52.068;4.542;2023-06-19T14:28:25;6.3;;;4.5;;
76548;SDS011;65391;52.068;4.542;2023-06-19T14:30:50;6.9;;;4.4;;
76548;SDS011;65391;52.068;4.542;2023-06-19T14:33:15;6.9;;;4.4;;
76548;SDS011;65391;52.068;4.542;2023-06-19T14:35:40;6.9;;;4.4;;
76548;SDS011;65391;52.068;4.542;2023-06-19T14:38:05;6.9;;;4.4;;
76548;SDS011;65391;52.068;4.542;2023-06-19T14:40:30;6.9;;;4.4;;
76548;SDS011;65391;52.068;4.542;2023-06-19T14:42:55;7.5;;;3.9;;
76548;SDS011;65391;52.068;4.542;2023-06-19T14:45:20;7.5;;;3.9;;
76548;SDS011;65391;52.068;4.542;2023-06-19T14:47:45;7.5;;;3.9;;
76548;SDS011;65391;52.068;4.542;2023-06-19T14:50:10;7.5;;;3.9;;
76548;SDS011;65391;52.068;4.542;2023-06-19T14:52:35;6.5;;;4.4;;